createdAt,value
2023-03-04T00:02:18.590Z,13.38
2023-03-04T00:05:09.160Z,13.18
2023-03-04T00:07:59.744Z,15.20
2023-03-04T00:10:49.061Z,14.55
2023-03-04T00:13:38.305Z,13.55
2023-03-04T00:16:28.980Z,13.13
2023-03-04T00:19:18.218Z,13.52
2023-03-04T00:22:07.718Z,13.05
2023-03-04T00:24:58.705Z,15.27
2023-03-04T00:27:48.575Z,12.13
2023-03-04T00:30:37.841Z,12.38
2023-03-04T00:33:27.082Z,13.43
2023-03-04T00:36:16.346Z,13.60
2023-03-04T00:39:05.641Z,13.82
2023-03-04T00:41:56.442Z,14.75
2023-03-04T00:44:45.883Z,14.90
2023-03-04T00:47:35.027Z,14.95
2023-03-04T00:50:24.388Z,15.10
2023-03-04T00:53:13.682Z,14.55
2023-03-04T00:56:02.991Z,13.43
2023-03-04T00:58:54.879Z,15.55
2023-03-04T01:01:44.162Z,18.20
2023-03-04T01:04:33.396Z,19.63
2023-03-04T01:07:22.592Z,21.48
2023-03-04T01:10:15.127Z,20.13
2023-03-04T01:13:04.592Z,23.50
2023-03-04T01:15:56.061Z,21.10
2023-03-04T01:18:47.287Z,23.48
2023-03-04T01:21:36.477Z,20.23
2023-03-04T01:24:25.792Z,24.50
2023-03-04T01:27:15.071Z,20.48
2023-03-04T01:30:05.648Z,22.67
2023-03-04T01:32:56.286Z,21.23
2023-03-04T01:35:45.831Z,18.00
2023-03-04T01:38:35.259Z,17.23
2023-03-04T01:41:27.396Z,18.45
2023-03-04T01:44:16.905Z,15.50
2023-03-04T01:47:07.321Z,15.02
2023-03-04T01:50:02.976Z,15.32
2023-03-04T01:52:54.425Z,14.20
2023-03-04T01:55:43.752Z,13.35
2023-03-04T01:58:36.476Z,18.85
2023-03-04T02:01:25.880Z,14.00
2023-03-04T02:04:16.887Z,13.52
2023-03-04T02:07:09.445Z,14.45
2023-03-04T02:09:59.992Z,14.43
2023-03-04T02:12:49.266Z,15.80
2023-03-04T02:15:38.593Z,12.35
2023-03-04T02:18:28.287Z,13.95
2023-03-04T02:21:27.300Z,14.90
2023-03-04T02:24:30.525Z,13.07
2023-03-04T02:27:27.903Z,11.48
2023-03-04T02:30:22.123Z,11.98
2023-03-04T02:33:18.945Z,11.60
2023-03-04T02:36:12.757Z,13.05
2023-03-04T02:39:06.656Z,13.48
2023-03-04T02:41:57.270Z,11.38
2023-03-04T02:44:51.345Z,10.73
2023-03-04T02:47:42.521Z,13.45
2023-03-04T02:50:39.197Z,11.98
2023-03-04T02:53:28.911Z,12.88
2023-03-04T02:56:18.479Z,16.13
2023-03-04T02:59:07.818Z,15.10
2023-03-04T03:02:01.542Z,11.95
2023-03-04T03:04:58.710Z,12.68
2023-03-04T03:07:54.397Z,13.25
2023-03-04T03:10:44.433Z,14.38
2023-03-04T03:13:34.184Z,12.82
2023-03-04T03:16:23.593Z,12.77
2023-03-04T03:19:14.516Z,15.63
2023-03-04T03:22:04.052Z,13.07
2023-03-04T03:24:53.451Z,12.30
2023-03-04T03:27:43.047Z,17.08
2023-03-04T03:30:33.938Z,16.35
2023-03-04T03:33:23.216Z,13.35
2023-03-04T03:36:14.136Z,13.20
2023-03-04T03:39:03.394Z,13.45
2023-03-04T03:41:52.777Z,16.27
2023-03-04T03:44:42.011Z,13.45
2023-03-04T03:47:31.197Z,14.80
2023-03-04T03:50:21.564Z,13.45
2023-03-04T03:53:12.332Z,18.45
2023-03-04T03:56:01.857Z,13.90
2023-03-04T03:58:51.074Z,12.98
2023-03-04T04:01:40.319Z,13.68
2023-03-04T04:04:29.516Z,15.63
2023-03-04T04:07:18.803Z,15.77
2023-03-04T04:10:12.077Z,12.70
2023-03-04T04:13:01.207Z,14.48
2023-03-04T04:15:52.328Z,15.02
2023-03-04T04:18:41.530Z,14.23
2023-03-04T04:21:30.693Z,14.68
2023-03-04T04:24:20.390Z,13.15
2023-03-04T04:27:11.821Z,14.25
2023-03-04T04:30:00.996Z,16.23
2023-03-04T04:32:50.257Z,15.27
2023-03-04T04:35:39.969Z,15.00
2023-03-04T04:38:29.637Z,15.35
2023-03-04T04:41:22.561Z,15.63
2023-03-04T04:44:14.881Z,13.60
2023-03-04T04:47:04.118Z,12.40
2023-03-04T04:49:53.379Z,14.05
2023-03-04T04:52:43.226Z,13.18
2023-03-04T04:55:32.761Z,13.25
2023-03-04T04:58:21.950Z,12.95
2023-03-04T05:01:12.710Z,14.88
2023-03-04T05:04:02.167Z,13.90
2023-03-04T05:06:51.366Z,13.55
2023-03-04T05:09:40.529Z,13.88
2023-03-04T05:12:29.808Z,12.82
2023-03-04T05:15:19.259Z,13.82
2023-03-04T05:18:09.843Z,13.60
2023-03-04T05:21:01.806Z,14.35
2023-03-04T05:23:51.118Z,15.55
2023-03-04T05:26:40.766Z,15.68
2023-03-04T05:29:30.075Z,15.98
2023-03-04T05:32:19.458Z,15.32
2023-03-04T05:35:11.451Z,16.30
2023-03-04T05:38:00.720Z,20.02
2023-03-04T05:40:51.241Z,14.95
2023-03-04T05:43:42.991Z,15.95
2023-03-04T05:46:33.666Z,16.95
2023-03-04T05:49:23.052Z,15.43
2023-03-04T05:52:13.636Z,17.33
2023-03-04T05:55:02.846Z,18.60
2023-03-04T05:57:52.202Z,28.95
2023-03-04T06:00:41.693Z,20.95
2023-03-04T06:03:31.174Z,25.55
2023-03-04T06:06:20.453Z,18.38
2023-03-04T06:09:11.036Z,27.15
2023-03-04T06:12:00.264Z,27.20
2023-03-04T06:14:49.530Z,55.95
2023-03-04T06:17:42.047Z,22.02
2023-03-04T06:20:31.944Z,24.85
2023-03-04T06:23:21.107Z,30.83
2023-03-04T06:26:15.638Z,29.05
2023-03-04T06:29:05.897Z,18.27
2023-03-04T06:31:55.508Z,30.52
2023-03-04T06:34:44.697Z,43.92
2023-03-04T06:37:33.915Z,18.20
2023-03-04T06:40:23.167Z,17.00
2023-03-04T06:43:13.806Z,19.83
2023-03-04T06:46:03.117Z,18.65
2023-03-04T06:48:52.337Z,32.72
2023-03-04T06:51:41.543Z,22.05
2023-03-04T06:54:30.889Z,17.40
2023-03-04T06:57:20.078Z,23.75
2023-03-04T07:00:12.865Z,19.25
2023-03-04T07:03:02.208Z,21.83
2023-03-04T07:05:51.397Z,41.55
2023-03-04T07:08:41.270Z,26.02
2023-03-04T07:11:30.512Z,19.80
2023-03-04T07:14:19.761Z,18.17
2023-03-04T07:17:10.383Z,26.50
2023-03-04T07:19:59.673Z,32.55
2023-03-04T07:22:48.933Z,62.35
2023-03-04T07:25:39.052Z,55.20
2023-03-04T07:28:36.473Z,40.90
2023-03-04T07:31:30.068Z,37.17
2023-03-04T07:34:20.847Z,46.47
2023-03-04T07:37:10.307Z,32.63
2023-03-04T07:39:59.642Z,26.90
2023-03-04T07:42:51.915Z,23.85
2023-03-04T07:45:41.893Z,26.13
2023-03-04T07:48:31.358Z,24.15
2023-03-04T07:51:24.744Z,26.10
2023-03-04T07:54:13.972Z,25.20
2023-03-04T07:57:03.288Z,25.20
2023-03-04T07:59:53.652Z,31.25
2023-03-04T08:02:45.127Z,28.17
2023-03-04T08:05:34.428Z,28.73
2023-03-04T08:08:25.094Z,24.50
2023-03-04T08:11:17.005Z,25.95
2023-03-04T08:14:06.907Z,27.50
2023-03-04T08:16:56.094Z,29.88
2023-03-04T08:19:45.707Z,27.30
2023-03-04T08:22:34.931Z,29.88
2023-03-04T08:25:25.558Z,30.38
2023-03-04T08:28:15.312Z,28.42
2023-03-04T08:31:04.661Z,28.45
2023-03-04T08:33:54.114Z,31.10
2023-03-04T08:36:44.157Z,29.63
2023-03-04T08:39:33.475Z,28.30
2023-03-04T08:42:24.343Z,30.05
2023-03-04T08:45:13.876Z,28.50
2023-03-04T08:48:04.022Z,32.42
2023-03-04T08:50:53.835Z,28.38
2023-03-04T08:53:43.785Z,28.75
2023-03-04T08:56:33.035Z,29.23
2023-03-04T08:59:23.765Z,29.95
2023-03-04T09:02:13.010Z,32.03
2023-03-04T09:05:02.215Z,31.20
2023-03-04T09:07:51.657Z,33.53
2023-03-04T09:10:41.143Z,33.22
2023-03-04T09:13:32.537Z,33.78
2023-03-04T09:16:23.532Z,35.33
2023-03-04T09:19:12.836Z,30.33
2023-03-04T09:22:02.296Z,33.00
2023-03-04T09:24:51.587Z,33.25
2023-03-04T09:27:40.894Z,33.17
2023-03-04T09:30:30.557Z,31.80
2023-03-04T09:33:21.155Z,33.45
2023-03-04T09:36:12.068Z,31.80
2023-03-04T09:39:02.415Z,33.85
2023-03-04T09:41:57.367Z,35.25
2023-03-04T09:44:48.719Z,32.08
2023-03-04T09:47:39.707Z,36.47
2023-03-04T09:50:34.550Z,37.40
2023-03-04T09:53:33.981Z,32.35
2023-03-04T09:56:24.298Z,40.13
2023-03-04T09:59:26.502Z,31.33
2023-03-04T10:02:29.193Z,33.35
2023-03-04T10:05:22.890Z,31.95
2023-03-04T10:08:34.570Z,31.83
2023-03-04T10:11:29.889Z,34.67
2023-03-04T10:14:39.560Z,33.28
2023-03-04T10:17:38.206Z,31.63
2023-03-04T10:20:32.513Z,36.63
2023-03-04T10:23:27.498Z,34.45
2023-03-04T10:26:20.889Z,29.90
2023-03-04T10:29:14.899Z,30.17
2023-03-04T10:32:04.191Z,33.72
2023-03-04T10:34:53.488Z,34.85
2023-03-04T10:37:50.174Z,31.67
2023-03-04T10:40:45.128Z,34.60
2023-03-04T10:43:35.221Z,34.13
2023-03-04T10:46:25.555Z,28.85
2023-03-04T10:49:18.319Z,29.67
2023-03-04T10:52:24.624Z,32.17
2023-03-04T10:55:19.942Z,29.67
2023-03-04T10:58:18.881Z,28.52
2023-03-04T11:01:08.370Z,30.80
2023-03-04T11:03:58.681Z,30.58
2023-03-04T11:06:48.325Z,36.10
2023-03-04T11:09:37.596Z,39.22
2023-03-04T11:12:35.954Z,44.67
2023-03-04T11:15:31.272Z,38.75
2023-03-04T11:18:27.277Z,84.25
2023-03-04T11:21:20.438Z,81.20
2023-03-04T11:24:29.055Z,62.55
2023-03-04T11:27:25.234Z,76.80
2023-03-04T11:30:40.018Z,66.35
2023-03-04T11:33:42.379Z,90.20
2023-03-04T11:36:41.933Z,84.38
2023-03-04T11:39:37.103Z,78.47
2023-03-04T11:42:36.784Z,78.15
2023-03-04T11:45:50.376Z,81.88
2023-03-04T11:51:49.623Z,84.53
2023-03-04T11:54:52.999Z,86.80
2023-03-04T12:00:47.589Z,83.68
2023-03-04T12:04:16.392Z,80.55
2023-03-04T12:07:22.550Z,67.28
2023-03-04T12:10:23.896Z,67.75
2023-03-04T12:13:53.705Z,63.75
2023-03-04T12:17:27.870Z,60.83
2023-03-04T12:20:42.645Z,68.10
2023-03-04T12:24:06.834Z,63.17
2023-03-04T12:27:01.653Z,63.90
2023-03-04T12:30:02.417Z,56.75
2023-03-04T12:33:02.664Z,57.15
2023-03-04T12:36:07.664Z,66.60
2023-03-04T12:39:05.658Z,55.75
2023-03-04T12:42:07.205Z,50.63
2023-03-04T12:45:08.419Z,51.10
2023-03-04T12:48:10.270Z,56.05
2023-03-04T12:51:19.358Z,58.65
2023-03-04T12:54:26.147Z,55.60
2023-03-04T12:57:18.651Z,47.55
2023-03-04T13:00:27.205Z,44.20
2023-03-04T13:03:25.747Z,51.78
2023-03-04T13:06:34.461Z,52.38
2023-03-04T13:09:31.388Z,47.53
2023-03-04T13:12:22.606Z,38.08
2023-03-04T13:15:35.071Z,36.30
2023-03-04T13:18:36.721Z,36.13
2023-03-04T13:21:31.649Z,30.52
2023-03-04T13:24:47.494Z,31.23
2023-03-04T13:27:51.790Z,28.90
2023-03-04T13:31:26.745Z,27.70
2023-03-04T13:34:49.523Z,24.27
2023-03-04T13:37:57.404Z,23.95
2023-03-04T13:41:06.722Z,22.35
2023-03-04T13:43:57.479Z,22.88
2023-03-04T13:46:46.895Z,30.25
2023-03-04T13:49:36.290Z,21.55
2023-03-04T13:52:51.273Z,26.58
2023-03-04T13:55:43.186Z,24.42
2023-03-04T13:58:32.726Z,20.35
2023-03-04T14:01:32.000Z,24.02
2023-03-04T14:04:25.105Z,20.88
2023-03-04T14:07:26.010Z,24.75
2023-03-04T14:10:26.122Z,21.75
2023-03-04T14:13:15.382Z,21.55
2023-03-04T14:16:04.843Z,26.00
2023-03-04T14:19:03.391Z,23.67
2023-03-04T14:21:52.579Z,28.90
2023-03-04T14:24:41.850Z,28.23
2023-03-04T14:27:36.237Z,28.80
2023-03-04T14:30:41.508Z,23.25
2023-03-04T14:33:32.613Z,23.92
2023-03-04T14:36:26.107Z,31.23
2023-03-04T14:39:19.444Z,25.38
2023-03-04T14:42:14.643Z,26.02
2023-03-04T14:45:06.750Z,28.67
2023-03-04T14:48:00.891Z,27.38
2023-03-04T14:50:50.899Z,27.05
2023-03-04T14:53:58.825Z,32.60
2023-03-04T14:56:48.168Z,25.65
2023-03-04T14:59:38.055Z,27.88
2023-03-04T15:02:36.255Z,29.77
2023-03-04T15:05:29.664Z,26.60
2023-03-04T15:08:25.153Z,30.58
2023-03-04T15:11:24.910Z,28.00
2023-03-04T15:14:45.975Z,24.20
2023-03-04T15:17:38.920Z,28.13
2023-03-04T15:20:30.911Z,30.35
2023-03-04T15:23:20.115Z,29.52
2023-03-04T15:26:12.304Z,30.50
2023-03-04T15:29:01.769Z,31.93
2023-03-04T15:31:51.896Z,30.55
2023-03-04T15:34:42.488Z,35.25
2023-03-04T15:37:31.887Z,34.05
2023-03-04T15:40:31.717Z,34.47
2023-03-04T15:43:23.451Z,35.28
2023-03-04T15:46:15.189Z,40.90
2023-03-04T15:49:05.475Z,33.15
2023-03-04T15:51:56.885Z,48.53
2023-03-04T15:54:46.659Z,37.60
2023-03-04T15:57:36.003Z,34.90
2023-03-04T16:00:25.687Z,37.63
2023-03-04T16:03:20.629Z,34.97
2023-03-04T16:06:13.135Z,42.25
2023-03-04T16:09:08.264Z,48.15
2023-03-04T16:12:02.085Z,35.97
2023-03-04T16:14:51.357Z,42.45
2023-03-04T16:17:44.193Z,36.13
2023-03-04T16:20:33.595Z,41.92
2023-03-04T16:23:25.550Z,40.67
2023-03-04T16:26:22.007Z,44.65
2023-03-04T16:29:14.294Z,45.90
2023-03-04T16:32:03.680Z,41.13
2023-03-04T16:34:52.916Z,51.90
2023-03-04T16:37:43.212Z,45.55
2023-03-04T16:40:35.592Z,53.95
2023-03-04T16:43:26.843Z,44.72
2023-03-04T16:46:16.234Z,52.20
2023-03-04T16:49:05.766Z,52.50
2023-03-04T16:51:55.046Z,49.97
2023-03-04T16:54:44.304Z,51.85
2023-03-04T16:57:33.480Z,51.65
2023-03-04T17:00:28.233Z,55.00
2023-03-04T17:03:17.431Z,52.85
2023-03-04T17:06:07.341Z,59.10
2023-03-04T17:08:56.627Z,53.75
2023-03-04T17:11:46.324Z,59.67
2023-03-04T17:14:36.080Z,50.45
2023-03-04T17:17:26.720Z,56.15
2023-03-04T17:20:18.736Z,56.55
2023-03-04T17:23:08.068Z,55.05
2023-03-04T17:25:58.311Z,50.45
2023-03-04T17:28:47.709Z,52.33
2023-03-04T17:31:38.195Z,56.75
2023-03-04T17:34:28.838Z,49.92
2023-03-04T17:37:18.100Z,57.00
2023-03-04T17:40:14.259Z,50.92
2023-03-04T17:43:03.526Z,56.40
2023-03-04T17:45:52.667Z,54.67
2023-03-04T17:48:42.610Z,58.30
2023-03-04T17:51:36.954Z,52.70
2023-03-04T17:54:26.270Z,51.60
2023-03-04T17:57:17.167Z,53.60
2023-03-04T18:00:08.518Z,60.70
2023-03-04T18:02:57.792Z,51.38
2023-03-04T18:05:47.059Z,47.58
2023-03-04T18:08:37.696Z,68.20
2023-03-04T18:11:28.270Z,46.10
2023-03-04T18:14:17.620Z,39.05
2023-03-04T18:17:07.014Z,46.72
2023-03-04T18:19:56.801Z,75.25
2023-03-04T18:22:46.757Z,68.00
2023-03-04T18:25:37.471Z,59.35
2023-03-04T18:28:27.222Z,72.65
2023-03-04T18:31:20.014Z,51.20
2023-03-04T18:34:09.402Z,42.88
2023-03-04T18:36:58.581Z,77.68
2023-03-04T18:39:47.746Z,141.45
2023-03-04T18:42:38.665Z,101.97
2023-03-04T18:45:28.705Z,68.32
2023-03-04T18:48:17.867Z,58.35
2023-03-04T18:51:07.575Z,60.50
2023-03-04T18:53:56.817Z,53.08
2023-03-04T18:56:49.887Z,56.95
2023-03-04T18:59:44.467Z,53.97
2023-03-04T19:02:38.138Z,49.47
2023-03-04T19:05:31.482Z,46.42
2023-03-04T19:08:20.750Z,48.33
2023-03-04T19:11:10.012Z,44.83
2023-03-04T19:13:59.636Z,59.00
2023-03-04T19:16:50.300Z,62.22
2023-03-04T19:19:39.744Z,44.67
2023-03-04T19:22:29.302Z,40.88
2023-03-04T19:25:18.886Z,43.95
2023-03-04T19:28:08.713Z,45.78
2023-03-04T19:30:59.252Z,35.88
2023-03-04T19:33:50.048Z,38.50
2023-03-04T19:36:39.491Z,37.42
2023-03-04T19:39:28.787Z,39.53
2023-03-04T19:42:18.230Z,37.45
2023-03-04T19:45:10.471Z,38.03
2023-03-04T19:48:02.860Z,35.90
2023-03-04T19:50:53.425Z,41.63
2023-03-04T19:53:42.954Z,41.45
2023-03-04T19:56:32.672Z,45.35
2023-03-04T19:59:21.971Z,46.80
2023-03-04T20:02:11.269Z,47.22
2023-03-04T20:05:00.799Z,46.95
2023-03-04T20:07:51.339Z,45.38
2023-03-04T20:10:41.216Z,54.45
2023-03-04T20:13:30.420Z,54.95
2023-03-04T20:16:19.707Z,52.00
2023-03-04T20:19:08.967Z,62.78
2023-03-04T20:21:58.675Z,56.42
2023-03-04T20:24:49.295Z,57.45
2023-03-04T20:27:38.533Z,63.05
2023-03-04T20:30:27.812Z,61.00
2023-03-04T20:33:17.081Z,54.78
2023-03-04T20:36:06.950Z,61.28
2023-03-04T20:39:02.383Z,59.15
2023-03-04T20:41:54.146Z,59.58
2023-03-04T20:44:43.485Z,77.38
2023-03-04T20:47:32.750Z,119.38
2023-03-04T20:50:22.204Z,114.85
2023-03-04T20:53:12.941Z,64.72
2023-03-04T20:56:04.645Z,55.40
2023-03-04T20:58:57.002Z,43.50
2023-03-04T21:01:48.109Z,43.40
2023-03-04T21:04:37.545Z,37.45
2023-03-04T21:07:26.752Z,44.40
2023-03-04T21:10:18.133Z,46.42
2023-03-04T21:13:11.223Z,48.53
2023-03-04T21:16:01.918Z,42.63
2023-03-04T21:18:51.984Z,44.28
2023-03-04T21:21:41.341Z,56.72
2023-03-04T21:24:33.265Z,45.92
2023-03-04T21:27:22.573Z,47.17
2023-03-04T21:30:13.549Z,51.22
2023-03-04T21:33:05.398Z,43.65
2023-03-04T21:35:54.701Z,46.67
2023-03-04T21:38:45.269Z,38.05
2023-03-04T21:41:34.533Z,39.13
2023-03-04T21:44:33.327Z,37.03
2023-03-04T21:47:23.819Z,49.03
2023-03-04T21:50:14.717Z,39.03
2023-03-04T21:53:04.002Z,46.22
2023-03-04T21:55:53.361Z,36.65
2023-03-04T21:58:42.782Z,37.88
2023-03-04T22:01:32.116Z,38.85
2023-03-04T22:04:21.723Z,34.80
2023-03-04T22:07:12.467Z,35.10
2023-03-04T22:10:03.242Z,33.03
2023-03-04T22:12:53.118Z,38.28
2023-03-04T22:15:45.072Z,40.30
2023-03-04T22:18:35.055Z,42.72
2023-03-04T22:21:24.938Z,38.83
2023-03-04T22:24:15.576Z,37.60
2023-03-04T22:27:04.924Z,40.50
2023-03-04T22:29:54.201Z,40.70
2023-03-04T22:32:46.113Z,39.50
2023-03-04T22:35:35.395Z,41.33
2023-03-04T22:38:24.562Z,44.50
2023-03-04T22:41:17.677Z,45.38
2023-03-04T22:46:56.928Z,43.25
2023-03-04T22:49:47.572Z,38.88
2023-03-04T22:52:36.813Z,48.20
2023-03-04T22:55:26.074Z,43.35
2023-03-04T22:58:16.688Z,45.92
2023-03-04T23:01:09.650Z,46.33
2023-03-04T23:03:59.395Z,40.67
2023-03-04T23:06:48.617Z,44.92
2023-03-04T23:09:37.812Z,49.40
2023-03-04T23:12:27.372Z,45.55
2023-03-04T23:15:19.813Z,44.15
2023-03-04T23:18:08.956Z,45.13
2023-03-04T23:20:58.203Z,42.88
2023-03-04T23:23:48.113Z,42.15
2023-03-04T23:26:40.641Z,40.72
2023-03-04T23:29:29.920Z,43.78
2023-03-04T23:32:20.542Z,41.90
2023-03-04T23:35:10.779Z,39.42
2023-03-04T23:38:00.151Z,45.03
2023-03-04T23:40:49.414Z,41.53
2023-03-04T23:43:38.692Z,40.58
2023-03-04T23:46:28.511Z,42.30
2023-03-04T23:49:19.341Z,42.95
2023-03-04T23:52:08.877Z,42.20
2023-03-04T23:54:58.704Z,38.63
2023-03-04T23:57:48.660Z,43.05
